Portada
METAR-TAF:

METAR-TAF

Aeroports :

Odessa, Ucraïna

latitud: 46-26N, longitud: 030-46E, altitud: 42 m

Observació

L'informe es va fer fa 22 minuts, a les 02:30 UTC
Vent calma
Temperatura 9°C
Humitat 93%
Pressió 1016 hPa
Visibilitat 10 km o més
sense núvols per sota de 1500 mi sense presència de cumulonimbus.

METAR: UKOO 230230Z 00000MPS CAVOK 09/08 Q1016 R16/090060 NOSIG

Hora: 05:52 (02:52 UTC)

Pronòstic

L'informe es va fer fa 3 hores i 45 minuts, a les 23:07 UTC
Pronòstic vàlid del 23 a les 00 UTC al 23 a les 24 UTC
Vent 6 kt del Oest/Sud-Oest
Visibilitat: 2100 m
Cel ennuvolat a una alçada de 700 ft
Núvols disperses a una alçada de 2000 ft, Cumulonimbus.
boirina
Evolucionant progressivament
l' 23 a les 06 UTC al 23 a les 08 UTC
Vent 10 kt del Sud/Sud-Oest amb ràfegues de 21 kt
Visibilitat: 6000 m

TAF: UKOO 222307Z 2300/2324 24003MPS 2100 BR BKN007 SCT020CB BECMG 2306/2308 20005G11MPS 6000 NSW

Observacions i pronòstics meteorològics de més de 4000 aeroports (METAR i TAF).

Les estacions disponibles són els punts grocs i vermells al mapa.

Posi el ratolí al punt desitjat per veure el nom de l'estació.

Feu clic per veure les observacions i els pronòstics meteorològics.

Per canviar el mapa: feu clic els botons verds amb una creu de color negre per apropar; al botó verd amb un guió per allunyar la imatge; o en les fletxes verdes per a mapes adjacents.


METAR-TAF: